Time;durP1;ratioP1;P1;durP2;ratioP2;P2;SDS_P1;SDS_P2;PMS_P1;PMS_P2;Temp;Humidity;BMP_temperature;BMP_pressure;BME280_temperature;BME280_humidity;BME280_pressure;Samples;Min_cycle;Max_cycle;Signal;HPM_P1;HPM_P2
2023/05/27 00:00:47;;;;;;;;;;;;;;;;;;5033680;28;20276;-74
2023/05/27 00:03:12;;;;;;;;;;;;;;;;;;5054705;28;19912;-74
2023/05/27 00:05:38;;;;;;;;;;;;;;;;;;5072730;28;19967;-73
2023/05/27 00:08:03;;;;;;;;;;;;;;;;;;5054680;28;19913;-73
2023/05/27 00:10:28;;;;;;;;;;;;;;;;;;5038189;28;19912;-73
2023/05/27 00:12:54;;;;;;;;;;;;;;;;;;5053574;28;20085;-72
2023/05/27 00:15:19;;;;;;;;;;;;;;;;;;5069524;28;19916;-74
2023/05/27 00:17:44;;;;;;;;;;;;;;;;;;5037993;28;19917;-73
2023/05/27 00:20:10;;;;;;;;;;;;;;;;;;5072763;28;19912;-73
2023/05/27 00:22:36;;;;;;;;;;;;;;;;;;5055202;28;19912;-73
2023/05/27 00:25:01;;;;;;;;;;;;;;;;;;5054686;28;19912;-73
2023/05/27 00:27:26;;;;;;;;;;;;;;;;;;5072461;28;20321;-73
2023/05/27 00:29:52;;;;;;;;;;;;;;;;;;5070964;28;19916;-73
2023/05/27 00:32:17;;;;;;;;;;;;;;;;;;5054614;28;19916;-74
2023/05/27 00:34:42;;;;;;;;;;;;;;;;;;5072210;28;19929;-73
2023/05/27 00:37:08;;;;;;;;;;;;;;;;;;5054421;28;20363;-73
2023/05/27 00:39:33;;;;;;;;;;;;;;;;;;5071202;28;20439;-73
2023/05/27 00:41:58;;;;;;;;;;;;;;;;;;5037534;28;19913;-74
2023/05/27 00:44:24;;;;;;;;;;;;;;;;;;5072116;28;20356;-73
2023/05/27 00:46:49;;;;;;;;;;;;;;;;;;5054270;28;20347;-74
2023/05/27 00:49:14;;;;;;;;;;;;;;;;;;5037609;28;20298;-72
2023/05/27 00:51:40;;;;;;;;;;;;;;;;;;5054300;28;19909;-72
2023/05/27 00:54:05;;;;;;;;;;;;;;;;;;5054233;28;19912;-73
2023/05/27 00:56:31;;;;;;;;;;;;;;;;;;5071543;28;19913;-73
2023/05/27 00:58:56;;;;;;;;;;;;;;;;;;5057589;28;19916;-73
2023/05/27 01:01:25;;;;;;;;;;;;;;;;;;5075436;28;20409;-73
2023/05/27 01:03:50;;;;;;;;;;;;;;;;;;5074618;28;19918;-73
2023/05/27 01:06:15;;;;;;;;;;;;;;;;;;5057601;28;19998;-74
2023/05/27 01:08:41;;;;;;;;;;;;;;;;;;5057499;28;20371;-72
2023/05/27 01:11:06;;;;;;;;;;;;;;;;;;5040882;28;20347;-75
2023/05/27 01:13:32;;;;;;;;;;;;;;;;;;5040824;28;19958;-74
2023/05/27 01:15:57;;;;;;;;;;;;;;;;;;5074193;28;19926;-73
2023/05/27 01:18:22;;;;;;;;;;;;;;;;;;5075122;28;20011;-73
2023/05/27 01:20:48;;;;;;;;;;;;;;;;;;5073981;28;19973;-74
2023/05/27 01:23:13;;;;;;;;;;;;;;;;;;5057481;28;19909;-76
2023/05/27 01:25:39;;;;;;;;;;;;;;;;;;5057258;28;19912;-76
2023/05/27 01:28:04;;;;;;;;;;;;;;;;;;5056013;28;20014;-76
2023/05/27 01:30:31;;;;;;;;;;;;;;;;;;5056355;28;19912;-76
2023/05/27 01:32:57;;;;;;;;;;;;;;;;;;5074012;28;19996;-76
2023/05/27 01:35:22;;;;;;;;;;;;;;;;;;5057200;28;20340;-76
2023/05/27 01:37:48;;;;;;;;;;;;;;;;;;5057085;28;20367;-76
2023/05/27 01:40:13;;;;;;;;;;;;;;;;;;5075036;28;19913;-76
2023/05/27 01:42:38;;;;;;;;;;;;;;;;;;5074979;28;19908;-72
2023/05/27 01:45:04;;;;;;;;;;;;;;;;;;5056702;28;19938;-72
2023/05/27 01:47:29;;;;;;;;;;;;;;;;;;5040176;28;19912;-72
2023/05/27 01:49:54;;;;;;;;;;;;;;;;;;5040282;28;19916;-72
2023/05/27 01:52:20;;;;;;;;;;;;;;;;;;5056750;28;19909;-72
2023/05/27 01:54:45;;;;;;;;;;;;;;;;;;5073476;28;19966;-73
2023/05/27 01:57:10;;;;;;;;;;;;;;;;;;5056283;28;20521;-73
2023/05/27 01:59:35;;;;;;;;;;;;;;;;;;5056561;28;19927;-73
2023/05/27 02:02:01;;;;;;;;;;;;;;;;;;5056772;28;19915;-73
2023/05/27 02:04:26;;;;;;;;;;;;;;;;;;5074531;28;19916;-73
2023/05/27 02:06:53;;;;;;;;;;;;;;;;;;5056618;28;19966;-72
2023/05/27 02:09:20;;;;;;;;;;;;;;;;;;5074432;28;19974;-73
2023/05/27 02:11:45;;;;;;;;;;;;;;;;;;5056204;28;19916;-72
2023/05/27 02:14:11;;;;;;;;;;;;;;;;;;5074311;28;19913;-72
2023/05/27 02:16:39;;;;;;;;;;;;;;;;;;5056446;28;19912;-73
2023/05/27 02:19:04;;;;;;;;;;;;;;;;;;5056285;28;19917;-74
2023/05/27 02:21:30;;;;;;;;;;;;;;;;;;5056420;28;19919;-74
2023/05/27 02:23:55;;;;;;;;;;;;;;;;;;5039933;28;20359;-74
2023/05/27 02:26:21;;;;;;;;;;;;;;;;;;5039828;28;19991;-74
2023/05/27 02:28:46;;;;;;;;;;;;;;;;;;5056219;28;19969;-74
2023/05/27 02:31:12;;;;;;;;;;;;;;;;;;5038006;28;19912;-73
2023/05/27 02:33:37;;;;;;;;;;;;;;;;;;5039419;28;19927;-73
2023/05/27 02:36:02;;;;;;;;;;;;;;;;;;5056813;28;19908;-73
2023/05/27 02:38:28;;;;;;;;;;;;;;;;;;5039481;28;20329;-74
2023/05/27 02:40:53;;;;;;;;;;;;;;;;;;5054936;28;19951;-75
2023/05/27 02:43:19;;;;;;;;;;;;;;;;;;5055932;28;20359;-75
2023/05/27 02:45:45;;;;;;;;;;;;;;;;;;5055990;28;19962;-76
2023/05/27 02:48:10;;;;;;;;;;;;;;;;;;5056028;28;19966;-73
2023/05/27 02:50:37;;;;;;;;;;;;;;;;;;5055864;28;19912;-74
2023/05/27 02:53:02;;;;;;;;;;;;;;;;;;5055807;28;19912;-75
2023/05/27 02:55:28;;;;;;;;;;;;;;;;;;5055744;28;19912;-75
2023/05/27 02:57:53;;;;;;;;;;;;;;;;;;5073557;28;20015;-73
2023/05/27 03:00:18;;;;;;;;;;;;;;;;;;5036377;28;20303;-74
2023/05/27 03:02:44;;;;;;;;;;;;;;;;;;5070542;28;19908;-75
2023/05/27 03:05:09;;;;;;;;;;;;;;;;;;5070005;28;19985;-74
2023/05/27 03:07:34;;;;;;;;;;;;;;;;;;5070056;28;19916;-73
2023/05/27 03:10:00;;;;;;;;;;;;;;;;;;5051312;28;19912;-74
2023/05/27 03:12:25;;;;;;;;;;;;;;;;;;5034636;28;20015;-74
2023/05/27 03:14:50;;;;;;;;;;;;;;;;;;5051476;28;19912;-75
2023/05/27 03:17:16;;;;;;;;;;;;;;;;;;5067713;28;20908;-75
2023/05/27 03:19:41;;;;;;;;;;;;;;;;;;5050738;28;19912;-75
2023/05/27 03:22:07;;;;;;;;;;;;;;;;;;5067640;28;19912;-74
2023/05/27 03:24:33;;;;;;;;;;;;;;;;;;5051298;28;19916;-75
2023/05/27 03:26:58;;;;;;;;;;;;;;;;;;5068081;28;19969;-75
2023/05/27 03:29:24;;;;;;;;;;;;;;;;;;5050592;28;19920;-75
2023/05/27 03:31:49;;;;;;;;;;;;;;;;;;5050970;28;19956;-75
2023/05/27 03:34:16;;;;;;;;;;;;;;;;;;5034694;28;20291;-75
2023/05/27 03:36:46;;;;;;;;;;;;;;;;;;5051159;28;19919;-75
2023/05/27 03:39:11;;;;;;;;;;;;;;;;;;5050990;28;19917;-74
2023/05/27 03:41:39;;;;;;;;;;;;;;;;;;5049685;28;20012;-73
2023/05/27 03:44:07;;;;;;;;;;;;;;;;;;5050519;28;20444;-73
2023/05/27 03:46:32;;;;;;;;;;;;;;;;;;5050863;28;20010;-73
2023/05/27 03:48:58;;;;;;;;;;;;;;;;;;5050748;28;20283;-74
2023/05/27 03:51:23;;;;;;;;;;;;;;;;;;5068641;28;19912;-75
2023/05/27 03:53:49;;;;;;;;;;;;;;;;;;5050862;28;19909;-74
2023/05/27 03:56:15;;;;;;;;;;;;;;;;;;5068617;28;19970;-74
2023/05/27 03:58:40;;;;;;;;;;;;;;;;;;5067473;28;19920;-74
2023/05/27 04:01:05;;;;;;;;;;;;;;;;;;5050882;28;20262;-74
2023/05/27 04:03:31;;;;;;;;;;;;;;;;;;5050585;28;20036;-76
2023/05/27 04:05:57;;;;;;;;;;;;;;;;;;5050740;28;20010;-78
2023/05/27 04:08:25;;;;;;;;;;;;;;;;;;5050343;28;20507;-76
2023/05/27 04:10:51;;;;;;;;;;;;;;;;;;5050850;28;19959;-76
2023/05/27 04:13:16;;;;;;;;;;;;;;;;;;5050493;28;19963;-75
2023/05/27 04:15:42;;;;;;;;;;;;;;;;;;5031209;28;19962;-75
2023/05/27 04:18:07;;;;;;;;;;;;;;;;;;5050527;28;19921;-75
2023/05/27 04:20:34;;;;;;;;;;;;;;;;;;5050532;28;19919;-75
2023/05/27 04:22:59;;;;;;;;;;;;;;;;;;5034145;28;20243;-75
2023/05/27 04:25:25;;;;;;;;;;;;;;;;;;5034253;28;19913;-75
2023/05/27 04:28:04;;;;;;;;;;;;;;;;;;5050406;28;19919;-75
2023/05/27 04:30:29;;;;;;;;;;;;;;;;;;5067187;28;19961;-76
2023/05/27 04:32:55;;;;;;;;;;;;;;;;;;5053691;28;19916;-76
2023/05/27 04:35:21;;;;;;;;;;;;;;;;;;5028077;28;19931;-74
2023/05/27 04:37:47;;;;;;;;;;;;;;;;;;5038506;28;20046;-74
2023/05/27 04:40:13;;;;;;;;;;;;;;;;;;5070495;28;20019;-74
2023/05/27 04:42:57;;;;;;;;;;;;;;;;;;5052646;28;19916;-74
2023/05/27 04:45:23;;;;;;;;;;;;;;;;;;5052699;28;19927;-74
2023/05/27 04:47:49;;;;;;;;;;;;;;;;;;5070446;28;19957;-74
2023/05/27 04:50:14;;;;;;;;;;;;;;;;;;5071612;28;20011;-76
2023/05/27 04:52:41;;;;;;;;;;;;;;;;;;5054094;28;20743;-76
2023/05/27 04:55:06;;;;;;;;;;;;;;;;;;5069158;28;19912;-76
2023/05/27 04:57:40;;;;;;;;;;;;;;;;;;5053710;28;19916;-75
2023/05/27 05:02:34;;;;;;;;;;;;;;;;;;5048968;28;20345;-74
2023/05/27 05:05:04;;;;;;;;;;;;;;;;;;5054285;28;19935;-78
2023/05/27 05:07:30;;;;;;;;;;;;;;;;;;5037162;28;20356;-76
2023/05/27 05:09:55;;;;;;;;;;;;;;;;;;5053319;28;19909;-77
2023/05/27 05:12:27;;;;;;;;;;;;;;;;;;5053350;28;19973;-77
2023/05/27 05:14:52;;;;;;;;;;;;;;;;;;5053269;28;19916;-78
2023/05/27 05:17:18;;;;;;;;;;;;;;;;;;5053455;28;19931;-78
2023/05/27 05:19:43;;;;;;;;;;;;;;;;;;5053262;28;19916;-76
2023/05/27 05:22:08;;;;;;;;;;;;;;;;;;5053405;28;19912;-77
2023/05/27 05:24:34;;;;;;;;;;;;;;;;;;5036880;28;19908;-75
2023/05/27 05:27:00;;;;;;;;;;;;;;;;;;5053548;28;19919;-77
2023/05/27 05:29:26;;;;;;;;;;;;;;;;;;5053171;28;20318;-75
2023/05/27 05:31:51;;;;;;;;;;;;;;;;;;5037090;28;19912;-75
2023/05/27 05:34:19;;;;;;;;;;;;;;;;;;5052814;28;19912;-79
2023/05/27 05:36:44;;;;;;;;;;;;;;;;;;5053110;28;19916;-78
2023/05/27 05:39:10;;;;;;;;;;;;;;;;;;5053029;28;19916;-79
2023/05/27 05:41:39;;;;;;;;;;;;;;;;;;5053147;28;19909;-77
2023/05/27 05:44:04;;;;;;;;;;;;;;;;;;5035769;28;19916;-79
2023/05/27 05:46:30;;;;;;;;;;;;;;;;;;5052982;28;19912;-75
2023/05/27 05:48:55;;;;;;;;;;;;;;;;;;5052965;28;20295;-78
2023/05/27 05:51:30;;;;;;;;;;;;;;;;;;5052824;28;19920;-78
2023/05/27 05:53:57;;;;;;;;;;;;;;;;;;5052693;28;20003;-79
2023/05/27 05:56:22;;;;;;;;;;;;;;;;;;5052680;28;20010;-80
2023/05/27 05:58:48;;;;;;;;;;;;;;;;;;5052794;28;19920;-79
2023/05/27 06:01:13;;;;;;;;;;;;;;;;;;5070968;28;19912;-78
2023/05/27 06:03:41;;;;;;;;;;;;;;;;;;5071167;28;19952;-78
2023/05/27 06:06:09;;;;;;;;;;;;;;;;;;5052398;28;20322;-77
2023/05/27 06:08:50;;;;;;;;;;;;;;;;;;5052513;28;19912;-77
2023/05/27 06:11:16;;;;;;;;;;;;;;;;;;5036410;28;20030;-78
2023/05/27 06:13:43;;;;;;;;;;;;;;;;;;5070761;28;19912;-77
2023/05/27 06:16:10;;;;;;;;;;;;;;;;;;5052045;28;19913;-78
2023/05/27 06:18:35;;;;;;;;;;;;;;;;;;5052713;28;19922;-78
2023/05/27 06:21:01;;;;;;;;;;;;;;;;;;5052578;28;20360;-79
2023/05/27 06:23:30;;;;;;;;;;;;;;;;;;5052820;28;19923;-79
2023/05/27 06:26:10;;;;;;;;;;;;;;;;;;5052315;28;19959;-79
2023/05/27 06:28:41;;;;;;;;;;;;;;;;;;5052452;28;19962;-81
2023/05/27 06:31:07;;;;;;;;;;;;;;;;;;5052428;28;19912;-79
2023/05/27 06:33:33;;;;;;;;;;;;;;;;;;5052034;28;19956;-79
2023/05/27 06:35:58;;;;;;;;;;;;;;;;;;5052059;28;20398;-79
2023/05/27 06:38:23;;;;;;;;;;;;;;;;;;5051851;28;20076;-80
2023/05/27 06:40:50;;;;;;;;;;;;;;;;;;5052142;28;20288;-78
2023/05/27 06:43:16;;;;;;;;;;;;;;;;;;5052133;28;20007;-76
2023/05/27 06:45:53;;;;;;;;;;;;;;;;;;5052112;28;19912;-77
2023/05/27 06:48:33;;;;;;;;;;;;;;;;;;5052238;28;20473;-81
2023/05/27 06:50:58;;;;;;;;;;;;;;;;;;5052312;28;19913;-79
2023/05/27 06:53:24;;;;;;;;;;;;;;;;;;5051518;28;20445;-78
2023/05/27 06:56:04;;;;;;;;;;;;;;;;;;5051478;28;20035;-79
2023/05/27 06:58:32;;;;;;;;;;;;;;;;;;5069683;28;19920;-79
2023/05/27 07:01:01;;;;;;;;;;;;;;;;;;5049384;28;19916;-80
2023/05/27 07:03:38;;;;;;;;;;;;;;;;;;5058594;28;20070;-78
2023/05/27 07:06:09;;;;;;;;;;;;;;;;;;5051349;28;20011;-80
2023/05/27 07:08:43;;;;;;;;;;;;;;;;;;5051161;28;19960;-79
2023/05/27 07:11:28;;;;;;;;;;;;;;;;;;5046645;28;19923;-80
2023/05/27 07:13:59;;;;;;;;;;;;;;;;;;5051062;28;20370;-79
2023/05/27 07:16:27;;;;;;;;;;;;;;;;;;5043579;28;19916;-81
2023/05/27 07:18:53;;;;;;;;;;;;;;;;;;5049579;28;19923;-81
2023/05/27 07:21:19;;;;;;;;;;;;;;;;;;5048192;28;19912;-83
2023/05/27 07:23:44;;;;;;;;;;;;;;;;;;5036808;28;20423;-82
2023/05/27 07:26:21;;;;;;;;;;;;;;;;;;5021318;28;19912;-84
2023/05/27 07:28:47;;;;;;;;;;;;;;;;;;5041030;28;19916;-81
2023/05/27 07:31:21;;;;;;;;;;;;;;;;;;5043154;28;19913;-81
2023/05/27 07:33:53;;;;;;;;;;;;;;;;;;5024007;28;19912;-80
2023/05/27 07:36:19;;;;;;;;;;;;;;;;;;5017608;28;19920;-81
2023/05/27 07:38:45;;;;;;;;;;;;;;;;;;5047675;28;19916;-81
2023/05/27 07:41:10;;;;;;;;;;;;;;;;;;5051110;28;20291;-80
2023/05/27 07:43:35;;;;;;;;;;;;;;;;;;5044851;28;19920;-77
2023/05/27 07:46:01;;;;;;;;;;;;;;;;;;5041411;28;19913;-80
2023/05/27 07:48:27;;;;;;;;;;;;;;;;;;5042537;28;19921;-77
2023/05/27 07:50:52;;;;;;;;;;;;;;;;;;5043753;28;19912;-78
2023/05/27 07:53:18;;;;;;;;;;;;;;;;;;5033771;28;19944;-78
2023/05/27 07:55:43;;;;;;;;;;;;;;;;;;5038964;28;19963;-82
2023/05/27 07:58:09;;;;;;;;;;;;;;;;;;5050032;28;19953;-81
2023/05/27 08:01:06;;;;;;;;;;;;;;;;;;5031648;28;19990;-83
2023/05/27 08:03:32;;;;;;;;;;;;;;;;;;5067151;28;20039;-79
2023/05/27 08:06:26;;;;;;;;;;;;;;;;;;5059269;28;19916;-81
2023/05/27 08:08:54;;;;;;;;;;;;;;;;;;5062646;28;19909;-82
2023/05/27 08:11:20;;;;;;;;;;;;;;;;;;5068946;28;19938;-80
2023/05/27 08:14:06;;;;;;;;;;;;;;;;;;5063283;28;20455;-78
2023/05/27 08:16:50;;;;;;;;;;;;;;;;;;5066520;28;19933;-78
2023/05/27 08:19:24;;;;;;;;;;;;;;;;;;5067135;28;19916;-79
2023/05/27 08:21:55;;;;;;;;;;;;;;;;;;5046751;28;19920;-77
2023/05/27 08:24:49;;;;;;;;;;;;;;;;;;5036922;28;19943;-76
2023/05/27 08:27:44;;;;;;;;;;;;;;;;;;5049230;28;20470;-78
2023/05/27 08:30:13;;;;;;;;;;;;;;;;;;5065563;28;19919;-76
2023/05/27 08:32:58;;;;;;;;;;;;;;;;;;5066248;28;19919;-77
2023/05/27 08:35:24;;;;;;;;;;;;;;;;;;5031739;28;20295;-77
2023/05/27 08:37:49;;;;;;;;;;;;;;;;;;5066762;28;19916;-78
2023/05/27 08:40:14;;;;;;;;;;;;;;;;;;5048311;28;19913;-77
2023/05/27 08:42:43;;;;;;;;;;;;;;;;;;5066846;28;19947;-76
2023/05/27 08:45:10;;;;;;;;;;;;;;;;;;5065184;28;19920;-77
2023/05/27 08:47:35;;;;;;;;;;;;;;;;;;5048510;28;20674;-77
2023/05/27 08:50:01;;;;;;;;;;;;;;;;;;5049002;28;19916;-77
2023/05/27 08:52:27;;;;;;;;;;;;;;;;;;5050027;28;19966;-77
2023/05/27 08:54:52;;;;;;;;;;;;;;;;;;5068995;28;20290;-76
2023/05/27 08:57:18;;;;;;;;;;;;;;;;;;5067119;28;19916;-77
2023/05/27 08:59:43;;;;;;;;;;;;;;;;;;5050207;28;19908;-77
2023/05/27 09:02:09;;;;;;;;;;;;;;;;;;5049705;28;20257;-76
2023/05/27 09:04:34;;;;;;;;;;;;;;;;;;5050273;28;19913;-78
2023/05/27 09:07:00;;;;;;;;;;;;;;;;;;5068256;28;20007;-76
2023/05/27 09:09:25;;;;;;;;;;;;;;;;;;5068084;28;19916;-76
2023/05/27 09:11:50;;;;;;;;;;;;;;;;;;5050316;28;19908;-77
2023/05/27 09:14:16;;;;;;;;;;;;;;;;;;5067967;28;19922;-77
2023/05/27 09:16:41;;;;;;;;;;;;;;;;;;5068421;28;19923;-75
2023/05/27 09:19:06;;;;;;;;;;;;;;;;;;5071302;28;19920;-77
2023/05/27 09:21:32;;;;;;;;;;;;;;;;;;5071878;28;20352;-76
2023/05/27 09:23:57;;;;;;;;;;;;;;;;;;5071531;28;19982;-76
2023/05/27 09:26:23;;;;;;;;;;;;;;;;;;5053251;28;19935;-76
2023/05/27 09:28:49;;;;;;;;;;;;;;;;;;5071469;28;19908;-77
2023/05/27 09:31:14;;;;;;;;;;;;;;;;;;5071350;28;19916;-77
2023/05/27 09:33:39;;;;;;;;;;;;;;;;;;5071193;28;19920;-77
2023/05/27 09:36:04;;;;;;;;;;;;;;;;;;5071014;28;19916;-77
2023/05/27 09:38:30;;;;;;;;;;;;;;;;;;5071159;28;20355;-75
2023/05/27 09:40:55;;;;;;;;;;;;;;;;;;5071549;28;19912;-76
2023/05/27 09:43:20;;;;;;;;;;;;;;;;;;5053340;28;19944;-78
2023/05/27 09:45:45;;;;;;;;;;;;;;;;;;5071228;28;19944;-75
2023/05/27 09:48:11;;;;;;;;;;;;;;;;;;5070941;28;19912;-75
2023/05/27 09:50:37;;;;;;;;;;;;;;;;;;5071013;28;19916;-75
2023/05/27 09:53:03;;;;;;;;;;;;;;;;;;5069624;28;19958;-77
2023/05/27 09:55:28;;;;;;;;;;;;;;;;;;5070780;28;19923;-77
2023/05/27 09:57:54;;;;;;;;;;;;;;;;;;5071142;28;19924;-75
2023/05/27 10:00:19;;;;;;;;;;;;;;;;;;5070427;28;19916;-77
2023/05/27 10:02:45;;;;;;;;;;;;;;;;;;5070679;28;20276;-75
2023/05/27 10:05:11;;;;;;;;;;;;;;;;;;5070896;28;19912;-77
2023/05/27 10:07:37;;;;;;;;;;;;;;;;;;5070664;28;19923;-76
2023/05/27 10:10:02;;;;;;;;;;;;;;;;;;5070532;28;20371;-75
2023/05/27 10:12:28;;;;;;;;;;;;;;;;;;5053131;28;20386;-75
2023/05/27 10:14:53;;;;;;;;;;;;;;;;;;5070812;28;19958;-75
2023/05/27 10:17:18;;;;;;;;;;;;;;;;;;5070870;28;19913;-76
2023/05/27 10:19:43;;;;;;;;;;;;;;;;;;5070779;28;19930;-78
2023/05/27 10:22:09;;;;;;;;;;;;;;;;;;5070200;28;19908;-77
2023/05/27 10:24:34;;;;;;;;;;;;;;;;;;5070840;28;19916;-75
2023/05/27 10:27:02;;;;;;;;;;;;;;;;;;5070494;28;19908;-74
2023/05/27 10:29:27;;;;;;;;;;;;;;;;;;5070513;28;19954;-77
2023/05/27 10:31:52;;;;;;;;;;;;;;;;;;5069997;28;19958;-76
2023/05/27 10:34:18;;;;;;;;;;;;;;;;;;5070033;28;19917;-76
2023/05/27 10:36:43;;;;;;;;;;;;;;;;;;5070507;28;19912;-76
2023/05/27 10:39:08;;;;;;;;;;;;;;;;;;5069892;28;19916;-76
2023/05/27 10:41:34;;;;;;;;;;;;;;;;;;5070060;28;20363;-76
2023/05/27 10:43:59;;;;;;;;;;;;;;;;;;5070643;28;19912;-76
2023/05/27 10:46:25;;;;;;;;;;;;;;;;;;5070143;28;19999;-76
2023/05/27 10:48:50;;;;;;;;;;;;;;;;;;5052127;28;19916;-76
2023/05/27 10:51:16;;;;;;;;;;;;;;;;;;5070039;28;19915;-76
2023/05/27 10:53:41;;;;;;;;;;;;;;;;;;5070170;28;19908;-76
2023/05/27 10:56:08;;;;;;;;;;;;;;;;;;5051995;28;19915;-76
2023/05/27 10:58:33;;;;;;;;;;;;;;;;;;5069891;28;19962;-77
2023/05/27 11:00:58;;;;;;;;;;;;;;;;;;5066529;28;19912;-76
2023/05/27 11:03:24;;;;;;;;;;;;;;;;;;5067277;28;19926;-76
2023/05/27 11:05:49;;;;;;;;;;;;;;;;;;5067652;28;20003;-75
2023/05/27 11:08:14;;;;;;;;;;;;;;;;;;5067604;28;19963;-75
2023/05/27 11:10:40;;;;;;;;;;;;;;;;;;5067616;28;20431;-76
2023/05/27 11:13:05;;;;;;;;;;;;;;;;;;5067189;28;19919;-76
2023/05/27 11:15:30;;;;;;;;;;;;;;;;;;5050186;28;19920;-76
2023/05/27 11:17:55;;;;;;;;;;;;;;;;;;5049526;28;19943;-77
2023/05/27 11:20:21;;;;;;;;;;;;;;;;;;5066899;28;19974;-76
2023/05/27 11:22:46;;;;;;;;;;;;;;;;;;5068064;28;19912;-76
2023/05/27 11:25:12;;;;;;;;;;;;;;;;;;5049084;28;19962;-78
2023/05/27 11:27:37;;;;;;;;;;;;;;;;;;5050856;28;20410;-75
2023/05/27 11:30:03;;;;;;;;;;;;;;;;;;5073115;28;19956;-77
2023/05/27 11:32:28;;;;;;;;;;;;;;;;;;5067109;28;19924;-76
2023/05/27 11:34:53;;;;;;;;;;;;;;;;;;5078129;28;19916;-78
2023/05/27 11:37:19;;;;;;;;;;;;;;;;;;5048515;28;19916;-75
2023/05/27 11:39:44;;;;;;;;;;;;;;;;;;5077599;28;20648;-76
2023/05/27 11:42:10;;;;;;;;;;;;;;;;;;5066981;28;19917;-75
2023/05/27 11:44:35;;;;;;;;;;;;;;;;;;5073480;28;19916;-77
2023/05/27 11:47:01;;;;;;;;;;;;;;;;;;5046302;28;20817;-75
2023/05/27 11:49:26;;;;;;;;;;;;;;;;;;5052033;28;19920;-76
2023/05/27 11:51:51;;;;;;;;;;;;;;;;;;5029801;28;19916;-75
2023/05/27 11:54:16;;;;;;;;;;;;;;;;;;5048315;28;19958;-76
2023/05/27 11:56:42;;;;;;;;;;;;;;;;;;5065524;28;19912;-76
2023/05/27 11:59:07;;;;;;;;;;;;;;;;;;5068896;28;19970;-76
2023/05/27 12:01:32;;;;;;;;;;;;;;;;;;5065484;28;20324;-76
2023/05/27 12:03:57;;;;;;;;;;;;;;;;;;5048233;28;19916;-75
2023/05/27 12:06:23;;;;;;;;;;;;;;;;;;5067216;28;19916;-75
2023/05/27 12:08:49;;;;;;;;;;;;;;;;;;5066940;28;20019;-76
2023/05/27 12:11:14;;;;;;;;;;;;;;;;;;5067816;28;20583;-76
2023/05/27 12:13:39;;;;;;;;;;;;;;;;;;5066780;28;19966;-75
2023/05/27 12:16:05;;;;;;;;;;;;;;;;;;5065801;28;19916;-77
2023/05/27 12:18:30;;;;;;;;;;;;;;;;;;5066469;28;20010;-76
2023/05/27 12:20:55;;;;;;;;;;;;;;;;;;5066645;28;20272;-76
2023/05/27 12:23:20;;;;;;;;;;;;;;;;;;5072782;28;20401;-76
2023/05/27 12:25:46;;;;;;;;;;;;;;;;;;5067880;28;20015;-76
2023/05/27 12:28:11;;;;;;;;;;;;;;;;;;5068573;28;19915;-75
2023/05/27 12:30:36;;;;;;;;;;;;;;;;;;5068431;28;19939;-76
2023/05/27 12:33:01;;;;;;;;;;;;;;;;;;5067721;28;19908;-80
2023/05/27 12:35:27;;;;;;;;;;;;;;;;;;5057112;28;20374;-75
2023/05/27 12:37:52;;;;;;;;;;;;;;;;;;5077115;28;19917;-75
2023/05/27 12:40:17;;;;;;;;;;;;;;;;;;5067567;28;20360;-76
2023/05/27 12:42:49;;;;;;;;;;;;;;;;;;5048885;28;20364;-76
2023/05/27 12:45:14;;;;;;;;;;;;;;;;;;5069913;28;19923;-77
2023/05/27 12:47:39;;;;;;;;;;;;;;;;;;5077133;28;19970;-76
2023/05/27 12:50:05;;;;;;;;;;;;;;;;;;5067926;28;20321;-75
2023/05/27 12:52:30;;;;;;;;;;;;;;;;;;5068622;28;19909;-74
2023/05/27 12:54:55;;;;;;;;;;;;;;;;;;5076853;28;19920;-75
2023/05/27 12:57:21;;;;;;;;;;;;;;;;;;5072542;28;19916;-75
2023/05/27 12:59:46;;;;;;;;;;;;;;;;;;5081613;28;20004;-75
2023/05/27 13:02:11;;;;;;;;;;;;;;;;;;5071224;28;20275;-74
2023/05/27 13:04:36;;;;;;;;;;;;;;;;;;5071280;28;19955;-75
2023/05/27 13:07:02;;;;;;;;;;;;;;;;;;5071462;28;20380;-76
2023/05/27 13:09:27;;;;;;;;;;;;;;;;;;5077057;28;19912;-75
2023/05/27 13:11:53;;;;;;;;;;;;;;;;;;5058269;28;19923;-77
2023/05/27 13:14:18;;;;;;;;;;;;;;;;;;5052971;28;19920;-76
2023/05/27 13:16:44;;;;;;;;;;;;;;;;;;5071438;28;20386;-79
2023/05/27 13:19:09;;;;;;;;;;;;;;;;;;5070513;28;19927;-76
2023/05/27 13:21:35;;;;;;;;;;;;;;;;;;5070997;28;19952;-76
2023/05/27 13:24:00;;;;;;;;;;;;;;;;;;5052983;28;19908;-75
2023/05/27 13:26:25;;;;;;;;;;;;;;;;;;5071366;28;19912;-76
2023/05/27 13:28:51;;;;;;;;;;;;;;;;;;5071825;28;19916;-76
2023/05/27 13:31:16;;;;;;;;;;;;;;;;;;5071667;28;19917;-77
2023/05/27 13:33:41;;;;;;;;;;;;;;;;;;5070948;28;20275;-75
2023/05/27 13:36:07;;;;;;;;;;;;;;;;;;5069526;28;20361;-76
2023/05/27 13:38:32;;;;;;;;;;;;;;;;;;5071168;28;20002;-75
2023/05/27 13:40:59;;;;;;;;;;;;;;;;;;5070989;28;19971;-76
2023/05/27 13:43:24;;;;;;;;;;;;;;;;;;5071106;28;19958;-74
2023/05/27 13:45:50;;;;;;;;;;;;;;;;;;5071338;28;19966;-74
2023/05/27 13:48:15;;;;;;;;;;;;;;;;;;5070329;28;19913;-74
2023/05/27 13:50:41;;;;;;;;;;;;;;;;;;5071011;28;19916;-74
2023/05/27 13:53:06;;;;;;;;;;;;;;;;;;5070176;28;19912;-74
2023/05/27 13:55:31;;;;;;;;;;;;;;;;;;5070561;28;20318;-75
2023/05/27 13:57:57;;;;;;;;;;;;;;;;;;5070255;28;20013;-75
2023/05/27 14:00:22;;;;;;;;;;;;;;;;;;5070905;28;19912;-75
2023/05/27 14:02:48;;;;;;;;;;;;;;;;;;5070598;28;20395;-74
2023/05/27 14:05:13;;;;;;;;;;;;;;;;;;5063351;28;20758;-76
2023/05/27 14:07:38;;;;;;;;;;;;;;;;;;5058343;28;20267;-74
2023/05/27 14:10:03;;;;;;;;;;;;;;;;;;5070339;28;20431;-74
2023/05/27 14:12:29;;;;;;;;;;;;;;;;;;5070102;28;19916;-75
2023/05/27 14:14:54;;;;;;;;;;;;;;;;;;5070766;28;19923;-75
2023/05/27 14:17:19;;;;;;;;;;;;;;;;;;5070176;28;19920;-75
2023/05/27 14:19:45;;;;;;;;;;;;;;;;;;5051066;28;19924;-75
2023/05/27 14:22:10;;;;;;;;;;;;;;;;;;5069799;28;19959;-75
2023/05/27 14:24:36;;;;;;;;;;;;;;;;;;5069340;28;19959;-74
2023/05/27 14:27:02;;;;;;;;;;;;;;;;;;5069823;28;20316;-75
2023/05/27 14:29:27;;;;;;;;;;;;;;;;;;5070332;28;19912;-74
2023/05/27 14:31:53;;;;;;;;;;;;;;;;;;5069173;28;19912;-76
2023/05/27 14:34:18;;;;;;;;;;;;;;;;;;5069706;28;19916;-75
2023/05/27 14:36:43;;;;;;;;;;;;;;;;;;5070518;28;19912;-76
2023/05/27 14:39:09;;;;;;;;;;;;;;;;;;5070091;28;19916;-75
2023/05/27 14:41:35;;;;;;;;;;;;;;;;;;5069389;28;19920;-79
2023/05/27 14:44:00;;;;;;;;;;;;;;;;;;5067920;28;19965;-75
2023/05/27 14:46:25;;;;;;;;;;;;;;;;;;5056718;28;19912;-76
2023/05/27 14:48:50;;;;;;;;;;;;;;;;;;5070616;28;20447;-75
2023/05/27 14:51:16;;;;;;;;;;;;;;;;;;5048587;28;20560;-75
2023/05/27 14:53:41;;;;;;;;;;;;;;;;;;5048120;28;19917;-75
2023/05/27 14:56:06;;;;;;;;;;;;;;;;;;5047533;28;20050;-75
2023/05/27 14:58:32;;;;;;;;;;;;;;;;;;5053481;28;19916;-74
2023/05/27 15:00:57;;;;;;;;;;;;;;;;;;5047694;28;20360;-74
2023/05/27 15:03:22;;;;;;;;;;;;;;;;;;5051120;28;19917;-74
2023/05/27 15:05:48;;;;;;;;;;;;;;;;;;5057337;28;19912;-74
2023/05/27 15:08:15;;;;;;;;;;;;;;;;;;5055212;28;19994;-79
2023/05/27 15:10:40;;;;;;;;;;;;;;;;;;5059150;28;20278;-74
2023/05/27 15:13:05;;;;;;;;;;;;;;;;;;5067721;28;19909;-75
2023/05/27 15:15:31;;;;;;;;;;;;;;;;;;5066810;28;20429;-73
2023/05/27 15:17:56;;;;;;;;;;;;;;;;;;5067634;28;19916;-74
2023/05/27 15:20:21;;;;;;;;;;;;;;;;;;5066663;28;19916;-75
2023/05/27 15:22:47;;;;;;;;;;;;;;;;;;5066788;28;20284;-74
2023/05/27 15:25:12;;;;;;;;;;;;;;;;;;5067692;28;19916;-73
2023/05/27 15:27:37;;;;;;;;;;;;;;;;;;5067382;28;19916;-74
2023/05/27 15:30:03;;;;;;;;;;;;;;;;;;5067586;28;19912;-75
2023/05/27 15:32:29;;;;;;;;;;;;;;;;;;5067315;28;19916;-75
2023/05/27 15:34:54;;;;;;;;;;;;;;;;;;5067620;28;19912;-75
2023/05/27 15:37:19;;;;;;;;;;;;;;;;;;5068345;28;19912;-75
2023/05/27 15:39:45;;;;;;;;;;;;;;;;;;5072784;28;19923;-76
2023/05/27 15:42:10;;;;;;;;;;;;;;;;;;5051188;28;19923;-75
2023/05/27 15:44:35;;;;;;;;;;;;;;;;;;5066141;28;19948;-75
2023/05/27 15:47:00;;;;;;;;;;;;;;;;;;5067000;28;20003;-75
2023/05/27 15:49:26;;;;;;;;;;;;;;;;;;5067321;28;19934;-75
2023/05/27 15:51:51;;;;;;;;;;;;;;;;;;5069141;28;20649;-74
2023/05/27 15:54:16;;;;;;;;;;;;;;;;;;5066578;28;19956;-75
2023/05/27 15:56:44;;;;;;;;;;;;;;;;;;5066821;28;19962;-75
2023/05/27 15:59:09;;;;;;;;;;;;;;;;;;5066953;28;19995;-73
2023/05/27 16:01:35;;;;;;;;;;;;;;;;;;5067118;28;20014;-75
2023/05/27 16:04:01;;;;;;;;;;;;;;;;;;5066896;28;20270;-74
2023/05/27 16:06:26;;;;;;;;;;;;;;;;;;5066734;28;19912;-74
2023/05/27 16:08:53;;;;;;;;;;;;;;;;;;5065828;28;20291;-74
2023/05/27 16:11:18;;;;;;;;;;;;;;;;;;5066791;28;19916;-75
2023/05/27 16:13:43;;;;;;;;;;;;;;;;;;5066938;28;20007;-75
2023/05/27 16:16:09;;;;;;;;;;;;;;;;;;5066755;28;19905;-73
2023/05/27 16:18:34;;;;;;;;;;;;;;;;;;5061894;28;19928;-79
2023/05/27 16:21:00;;;;;;;;;;;;;;;;;;5029872;28;19963;-76
2023/05/27 16:23:25;;;;;;;;;;;;;;;;;;5046965;28;20284;-79
2023/05/27 16:25:53;;;;;;;;;;;;;;;;;;5065426;28;19923;-78
2023/05/27 16:28:18;;;;;;;;;;;;;;;;;;5068230;28;19916;-80
2023/05/27 16:30:43;;;;;;;;;;;;;;;;;;5068818;28;19919;-81
2023/05/27 16:33:08;;;;;;;;;;;;;;;;;;5067925;28;20099;-80
2023/05/27 16:35:34;;;;;;;;;;;;;;;;;;5068542;28;20419;-81
2023/05/27 16:37:59;;;;;;;;;;;;;;;;;;5067911;28;20065;-78
2023/05/27 16:40:25;;;;;;;;;;;;;;;;;;5070360;28;19961;-80
2023/05/27 16:42:50;;;;;;;;;;;;;;;;;;5070664;28;19916;-80